sensor_id;sensor_type;location;lat;lon;timestamp;pressure;altitude;pressure_sealevel;temperature;humidity
50364;BME280;36272;59.400;17.982;2023-09-19T00:03:40;100125.88;;;18.41;84.27
50364;BME280;36272;59.400;17.982;2023-09-19T00:08:43;100138.03;;;18.44;84.43
50364;BME280;36272;59.400;17.982;2023-09-19T00:13:47;100102.03;;;18.43;84.81
50364;BME280;36272;59.400;17.982;2023-09-19T00:18:51;100125.53;;;18.48;84.62
50364;BME280;36272;59.400;17.982;2023-09-19T00:23:53;100110.09;;;18.49;84.31
50364;BME280;36272;59.400;17.982;2023-09-19T00:28:55;100104.41;;;18.50;85.02
50364;BME280;36272;59.400;17.982;2023-09-19T00:33:58;100094.34;;;18.51;85.09
50364;BME280;36272;59.400;17.982;2023-09-19T00:39:01;100085.66;;;18.54;85.06
50364;BME280;36272;59.400;17.982;2023-09-19T00:44:04;100073.44;;;18.56;85.25
50364;BME280;36272;59.400;17.982;2023-09-19T00:49:07;100051.19;;;18.60;85.50
50364;BME280;36272;59.400;17.982;2023-09-19T00:54:11;100043.56;;;18.62;85.52
50364;BME280;36272;59.400;17.982;2023-09-19T00:59:14;100034.06;;;18.64;85.60
50364;BME280;36272;59.400;17.982;2023-09-19T01:04:16;100030.78;;;18.67;85.92
50364;BME280;36272;59.400;17.982;2023-09-19T01:09:19;100015.56;;;18.71;85.78
50364;BME280;36272;59.400;17.982;2023-09-19T01:14:42;99996.00;;;18.75;85.88
50364;BME280;36272;59.400;17.982;2023-09-19T01:30:32;99959.25;;;18.87;86.07
50364;BME280;36272;59.400;17.982;2023-09-19T01:35:38;99951.31;;;18.91;86.34
50364;BME280;36272;59.400;17.982;2023-09-19T01:40:51;99934.22;;;18.96;86.63
50364;BME280;36272;59.400;17.982;2023-09-19T01:46:05;99922.47;;;19.00;86.60
50364;BME280;36272;59.400;17.982;2023-09-19T01:51:11;99920.19;;;19.08;86.17
50364;BME280;36272;59.400;17.982;2023-09-19T01:56:23;99909.53;;;19.11;86.53
50364;BME280;36272;59.400;17.982;2023-09-19T02:01:27;99903.25;;;19.16;86.56
50364;BME280;36272;59.400;17.982;2023-09-19T02:06:29;99892.59;;;19.20;86.81
50364;BME280;36272;59.400;17.982;2023-09-19T02:11:31;99885.47;;;19.24;86.91
50364;BME280;36272;59.400;17.982;2023-09-19T02:16:32;99887.56;;;19.27;86.93
50364;BME280;36272;59.400;17.982;2023-09-19T02:21:34;99872.59;;;19.29;87.08
50364;BME280;36272;59.400;17.982;2023-09-19T02:26:35;99844.91;;;19.32;87.23
50364;BME280;36272;59.400;17.982;2023-09-19T02:31:38;99815.59;;;19.35;87.19
50364;BME280;36272;59.400;17.982;2023-09-19T02:36:40;99817.19;;;19.36;87.19
50364;BME280;36272;59.400;17.982;2023-09-19T02:41:41;99804.97;;;19.38;87.46
50364;BME280;36272;59.400;17.982;2023-09-19T02:46:43;99800.03;;;19.40;87.45
50364;BME280;36272;59.400;17.982;2023-09-19T02:51:45;99782.34;;;19.43;87.55
50364;BME280;36272;59.400;17.982;2023-09-19T02:56:47;99772.00;;;19.45;87.65
50364;BME280;36272;59.400;17.982;2023-09-19T03:01:49;99751.09;;;19.45;87.84
50364;BME280;36272;59.400;17.982;2023-09-19T03:06:50;99742.34;;;19.49;87.81
50364;BME280;36272;59.400;17.982;2023-09-19T03:11:52;99717.66;;;19.50;87.67
50364;BME280;36272;59.400;17.982;2023-09-19T03:16:55;99716.56;;;19.51;87.58
50364;BME280;36272;59.400;17.982;2023-09-19T03:21:57;99701.88;;;19.52;87.85
50364;BME280;36272;59.400;17.982;2023-09-19T03:26:59;99679.09;;;19.53;88.18
50364;BME280;36272;59.400;17.982;2023-09-19T03:32:01;99655.47;;;19.54;87.90
50364;BME280;36272;59.400;17.982;2023-09-19T03:37:03;99631.56;;;19.56;87.95
50364;BME280;36272;59.400;17.982;2023-09-19T03:42:05;99644.34;;;19.55;88.20
50364;BME280;36272;59.400;17.982;2023-09-19T03:47:08;99630.78;;;19.55;88.26
50364;BME280;36272;59.400;17.982;2023-09-19T03:52:10;99614.50;;;19.55;88.50
50364;BME280;36272;59.400;17.982;2023-09-19T03:57:11;99616.09;;;19.56;88.66
50364;BME280;36272;59.400;17.982;2023-09-19T04:02:20;99605.25;;;19.56;88.64
50364;BME280;36272;59.400;17.982;2023-09-19T04:07:25;99610.06;;;19.59;88.48
50364;BME280;36272;59.400;17.982;2023-09-19T04:12:35;99600.81;;;19.60;88.51
50364;BME280;36272;59.400;17.982;2023-09-19T04:17:36;99612.94;;;19.63;88.53
50364;BME280;36272;59.400;17.982;2023-09-19T04:22:38;99601.81;;;19.65;88.64
50364;BME280;36272;59.400;17.982;2023-09-19T04:27:43;99584.88;;;19.68;88.66
50364;BME280;36272;59.400;17.982;2023-09-19T04:32:45;99594.34;;;19.70;88.54
50364;BME280;36272;59.400;17.982;2023-09-19T04:37:51;99584.28;;;19.71;88.61
50364;BME280;36272;59.400;17.982;2023-09-19T04:42:54;99578.84;;;19.71;88.70
50364;BME280;36272;59.400;17.982;2023-09-19T04:47:58;99575.03;;;19.72;88.35
50364;BME280;36272;59.400;17.982;2023-09-19T04:53:00;99553.03;;;19.73;88.43
50364;BME280;36272;59.400;17.982;2023-09-19T04:58:02;99541.84;;;19.75;88.39
50364;BME280;36272;59.400;17.982;2023-09-19T05:03:05;99537.25;;;19.75;88.41
50364;BME280;36272;59.400;17.982;2023-09-19T05:08:07;99523.34;;;19.77;88.61
50364;BME280;36272;59.400;17.982;2023-09-19T05:13:10;99518.41;;;19.79;88.70
50364;BME280;36272;59.400;17.982;2023-09-19T05:18:15;99492.41;;;19.78;88.96
50364;BME280;36272;59.400;17.982;2023-09-19T05:23:17;99500.25;;;19.80;88.75
50364;BME280;36272;59.400;17.982;2023-09-19T05:28:22;99486.84;;;19.83;88.65
50364;BME280;36272;59.400;17.982;2023-09-19T05:33:24;99473.78;;;19.85;88.73
50364;BME280;36272;59.400;17.982;2023-09-19T05:38:25;99469.03;;;19.91;88.72
50364;BME280;36272;59.400;17.982;2023-09-19T05:43:27;99478.63;;;19.97;88.52
50364;BME280;36272;59.400;17.982;2023-09-19T05:48:29;99467.94;;;20.01;88.65
50364;BME280;36272;59.400;17.982;2023-09-19T05:53:31;99449.59;;;20.06;88.61
50364;BME280;36272;59.400;17.982;2023-09-19T05:58:32;99456.47;;;20.13;88.31
50364;BME280;36272;59.400;17.982;2023-09-19T06:03:39;99435.72;;;20.17;88.32
50364;BME280;36272;59.400;17.982;2023-09-19T06:08:41;99446.44;;;20.22;88.09
50364;BME280;36272;59.400;17.982;2023-09-19T06:13:45;99444.03;;;20.29;88.18
50364;BME280;36272;59.400;17.982;2023-09-19T06:18:48;99438.78;;;20.33;88.03
50364;BME280;36272;59.400;17.982;2023-09-19T06:23:53;99418.97;;;20.50;86.52
50364;BME280;36272;59.400;17.982;2023-09-19T06:28:55;99446.13;;;20.41;87.42
50364;BME280;36272;59.400;17.982;2023-09-19T06:33:57;99433.81;;;20.44;87.25
50364;BME280;36272;59.400;17.982;2023-09-19T06:39:00;99424.88;;;20.43;87.65
50364;BME280;36272;59.400;17.982;2023-09-19T06:44:01;99429.69;;;20.46;87.45
50364;BME280;36272;59.400;17.982;2023-09-19T06:49:03;99426.81;;;20.52;87.50
50364;BME280;36272;59.400;17.982;2023-09-19T06:54:08;99412.88;;;20.53;87.03
50364;BME280;36272;59.400;17.982;2023-09-19T06:59:09;99410.78;;;20.59;87.32
50364;BME280;36272;59.400;17.982;2023-09-19T07:04:11;99399.16;;;20.58;87.30
50364;BME280;36272;59.400;17.982;2023-09-19T07:09:14;99406.97;;;20.60;87.25
50364;BME280;36272;59.400;17.982;2023-09-19T07:14:16;99401.22;;;20.61;87.23
50364;BME280;36272;59.400;17.982;2023-09-19T07:19:17;99395.47;;;20.63;87.15
50364;BME280;36272;59.400;17.982;2023-09-19T07:24:19;99384.28;;;20.64;87.26
50364;BME280;36272;59.400;17.982;2023-09-19T07:29:21;99377.88;;;20.69;86.96
50364;BME280;36272;59.400;17.982;2023-09-19T07:34:22;99372.63;;;20.73;86.70
50364;BME280;36272;59.400;17.982;2023-09-19T07:39:25;99367.19;;;20.73;86.63
50364;BME280;36272;59.400;17.982;2023-09-19T07:44:27;99350.56;;;20.74;86.82
50364;BME280;36272;59.400;17.982;2023-09-19T07:49:29;99357.28;;;20.77;86.66
50364;BME280;36272;59.400;17.982;2023-09-19T07:54:30;99342.72;;;20.82;86.60
50364;BME280;36272;59.400;17.982;2023-09-19T07:59:37;99319.53;;;20.84;86.41
50364;BME280;36272;59.400;17.982;2023-09-19T08:04:39;99336.97;;;20.92;86.32
50364;BME280;36272;59.400;17.982;2023-09-19T08:09:41;99324.09;;;21.01;86.10
50364;BME280;36272;59.400;17.982;2023-09-19T08:14:43;99326.66;;;21.06;85.81
50364;BME280;36272;59.400;17.982;2023-09-19T08:19:45;99301.22;;;21.11;85.57
50364;BME280;36272;59.400;17.982;2023-09-19T08:24:47;99329.00;;;21.17;85.49
50364;BME280;36272;59.400;17.982;2023-09-19T08:29:49;99331.53;;;21.22;85.44
50364;BME280;36272;59.400;17.982;2023-09-19T08:34:53;99336.34;;;21.25;85.10
50364;BME280;36272;59.400;17.982;2023-09-19T08:39:54;99328.31;;;21.29;84.97
50364;BME280;36272;59.400;17.982;2023-09-19T08:44:57;99304.97;;;21.28;84.99
50364;BME280;36272;59.400;17.982;2023-09-19T08:55:14;99289.81;;;21.48;84.61
50364;BME280;36272;59.400;17.982;2023-09-19T09:00:23;99283.03;;;21.63;84.03
50364;BME280;36272;59.400;17.982;2023-09-19T09:05:35;99268.69;;;21.75;83.68
50364;BME280;36272;59.400;17.982;2023-09-19T09:10:38;99290.28;;;21.80;82.77
50364;BME280;36272;59.400;17.982;2023-09-19T09:15:42;99265.34;;;21.90;82.55
50364;BME280;36272;59.400;17.982;2023-09-19T09:20:51;99248.41;;;22.06;81.56
50364;BME280;36272;59.400;17.982;2023-09-19T09:25:54;99252.16;;;22.13;81.13
50364;BME280;36272;59.400;17.982;2023-09-19T09:30:57;99250.72;;;22.16;80.71
50364;BME280;36272;59.400;17.982;2023-09-19T09:36:01;99257.81;;;22.30;80.53
50364;BME280;36272;59.400;17.982;2023-09-19T09:41:04;99248.50;;;22.43;79.78
50364;BME280;36272;59.400;17.982;2023-09-19T09:46:19;99245.16;;;22.58;79.18
50364;BME280;36272;59.400;17.982;2023-09-19T09:51:30;99241.66;;;22.70;78.99
50364;BME280;36272;59.400;17.982;2023-09-19T09:56:32;99254.13;;;22.71;77.78
50364;BME280;36272;59.400;17.982;2023-09-19T10:01:48;99239.16;;;22.65;77.04
50364;BME280;36272;59.400;17.982;2023-09-19T10:06:51;99234.28;;;22.58;77.18
50364;BME280;36272;59.400;17.982;2023-09-19T10:12:03;99239.03;;;22.62;77.30
50364;BME280;36272;59.400;17.982;2023-09-19T10:17:10;99229.41;;;22.77;76.34
50364;BME280;36272;59.400;17.982;2023-09-19T10:22:11;99210.19;;;23.10;76.04
50364;BME280;36272;59.400;17.982;2023-09-19T10:27:17;99223.34;;;23.21;75.11
50364;BME280;36272;59.400;17.982;2023-09-19T10:32:22;99213.81;;;23.27;74.39
50364;BME280;36272;59.400;17.982;2023-09-19T10:37:26;99198.78;;;23.21;74.11
50364;BME280;36272;59.400;17.982;2023-09-19T10:42:30;99196.19;;;23.37;73.94
50364;BME280;36272;59.400;17.982;2023-09-19T10:47:33;99217.00;;;23.70;72.97
50364;BME280;36272;59.400;17.982;2023-09-19T10:52:40;99205.19;;;23.66;72.64
50364;BME280;36272;59.400;17.982;2023-09-19T10:57:44;99211.56;;;23.57;72.83
50364;BME280;36272;59.400;17.982;2023-09-19T11:08:19;99219.59;;;23.13;73.49
50364;BME280;36272;59.400;17.982;2023-09-19T11:13:31;99206.34;;;22.99;73.94
50364;BME280;36272;59.400;17.982;2023-09-19T11:29:37;99215.56;;;23.60;71.43
50364;BME280;36272;59.400;17.982;2023-09-19T11:34:43;99193.13;;;23.95;70.66
50364;BME280;36272;59.400;17.982;2023-09-19T11:40:09;99202.28;;;25.51;66.48
50364;BME280;36272;59.400;17.982;2023-09-19T11:50:45;99168.78;;;30.25;55.34
50364;BME280;36272;59.400;17.982;2023-09-19T11:55:48;99204.25;;;29.17;55.42
50364;BME280;36272;59.400;17.982;2023-09-19T12:00:55;99195.28;;;27.47;55.17
50364;BME280;36272;59.400;17.982;2023-09-19T12:06:00;99222.94;;;28.37;53.62
50364;BME280;36272;59.400;17.982;2023-09-19T12:11:04;99215.56;;;29.01;51.22
50364;BME280;36272;59.400;17.982;2023-09-19T12:16:19;99197.25;;;27.81;51.38
50364;BME280;36272;59.400;17.982;2023-09-19T12:21:29;99203.53;;;27.20;52.38
50364;BME280;36272;59.400;17.982;2023-09-19T12:26:40;99195.47;;;27.00;51.47
50364;BME280;36272;59.400;17.982;2023-09-19T12:31:53;99171.84;;;28.29;50.40
50364;BME280;36272;59.400;17.982;2023-09-19T12:42:14;99194.63;;;29.56;47.02
50364;BME280;36272;59.400;17.982;2023-09-19T12:47:17;99202.16;;;29.77;46.27
50364;BME280;36272;59.400;17.982;2023-09-19T12:52:24;99199.25;;;28.70;46.93
50364;BME280;36272;59.400;17.982;2023-09-19T12:57:27;99207.09;;;27.85;48.02
50364;BME280;36272;59.400;17.982;2023-09-19T13:02:29;99191.66;;;27.09;48.64
50364;BME280;36272;59.400;17.982;2023-09-19T13:07:40;99191.25;;;26.33;50.04
50364;BME280;36272;59.400;17.982;2023-09-19T13:12:44;99211.97;;;25.68;50.83
50364;BME280;36272;59.400;17.982;2023-09-19T13:17:48;99205.00;;;25.15;52.08
50364;BME280;36272;59.400;17.982;2023-09-19T13:22:50;99217.00;;;24.75;52.36
50364;BME280;36272;59.400;17.982;2023-09-19T13:27:57;99207.47;;;24.37;52.64
50364;BME280;36272;59.400;17.982;2023-09-19T13:33:10;99214.66;;;24.13;53.38
50364;BME280;36272;59.400;17.982;2023-09-19T13:38:12;99225.66;;;23.88;51.93
50364;BME280;36272;59.400;17.982;2023-09-19T13:43:13;99226.50;;;23.48;51.18
50364;BME280;36272;59.400;17.982;2023-09-19T13:48:15;99233.34;;;23.16;50.67
50364;BME280;36272;59.400;17.982;2023-09-19T13:53:17;99244.25;;;22.79;51.03
50364;BME280;36272;59.400;17.982;2023-09-19T13:58:18;99277.09;;;22.37;52.06
50364;BME280;36272;59.400;17.982;2023-09-19T14:03:20;99282.16;;;21.71;53.96
50364;BME280;36272;59.400;17.982;2023-09-19T14:08:22;99292.09;;;21.16;55.14
50364;BME280;36272;59.400;17.982;2023-09-19T14:13:25;99272.91;;;20.73;56.85
50364;BME280;36272;59.400;17.982;2023-09-19T14:18:27;99274.44;;;20.44;57.33
50364;BME280;36272;59.400;17.982;2023-09-19T14:23:28;99283.59;;;20.22;56.93
50364;BME280;36272;59.400;17.982;2023-09-19T14:28:30;99292.34;;;20.10;57.03
50364;BME280;36272;59.400;17.982;2023-09-19T14:33:32;99283.59;;;19.96;56.63
50364;BME280;36272;59.400;17.982;2023-09-19T14:38:34;99288.84;;;19.83;56.01
50364;BME280;36272;59.400;17.982;2023-09-19T14:43:36;99299.19;;;19.72;56.27
50364;BME280;36272;59.400;17.982;2023-09-19T14:48:38;99306.69;;;19.67;55.68
50364;BME280;36272;59.400;17.982;2023-09-19T14:53:41;99302.06;;;19.58;55.12
50364;BME280;36272;59.400;17.982;2023-09-19T14:58:49;99286.91;;;19.57;55.23
50364;BME280;36272;59.400;17.982;2023-09-19T15:03:50;99306.03;;;19.70;54.86
50364;BME280;36272;59.400;17.982;2023-09-19T15:08:52;99323.44;;;19.69;54.79
50364;BME280;36272;59.400;17.982;2023-09-19T15:13:54;99320.72;;;19.51;54.62
50364;BME280;36272;59.400;17.982;2023-09-19T15:18:56;99344.41;;;19.37;55.00
50364;BME280;36272;59.400;17.982;2023-09-19T15:23:57;99368.53;;;19.07;57.95
50364;BME280;36272;59.400;17.982;2023-09-19T15:28:59;99366.63;;;18.30;59.95
50364;BME280;36272;59.400;17.982;2023-09-19T15:34:02;99388.50;;;17.92;60.91
50364;BME280;36272;59.400;17.982;2023-09-19T15:39:05;99361.94;;;17.71;61.26
50364;BME280;36272;59.400;17.982;2023-09-19T15:44:14;99361.34;;;17.60;61.79
50364;BME280;36272;59.400;17.982;2023-09-19T15:49:16;99376.66;;;17.51;61.57
50364;BME280;36272;59.400;17.982;2023-09-19T15:54:52;99351.34;;;17.33;61.84
50364;BME280;36272;59.400;17.982;2023-09-19T15:59:55;99374.06;;;17.18;61.94
50364;BME280;36272;59.400;17.982;2023-09-19T16:04:56;99375.94;;;17.03;62.33
50364;BME280;36272;59.400;17.982;2023-09-19T16:09:58;99363.41;;;16.93;62.38
50364;BME280;36272;59.400;17.982;2023-09-19T16:15:01;99372.75;;;16.82;62.60
50364;BME280;36272;59.400;17.982;2023-09-19T16:20:03;99359.44;;;16.72;62.48
50364;BME280;36272;59.400;17.982;2023-09-19T16:25:07;99364.41;;;16.64;62.57
50364;BME280;36272;59.400;17.982;2023-09-19T16:30:12;99360.09;;;16.63;62.34
50364;BME280;36272;59.400;17.982;2023-09-19T16:35:14;99369.06;;;16.45;62.15
50364;BME280;36272;59.400;17.982;2023-09-19T16:40:17;99379.19;;;16.34;61.56
50364;BME280;36272;59.400;17.982;2023-09-19T16:45:18;99396.84;;;16.26;61.54
50364;BME280;36272;59.400;17.982;2023-09-19T16:50:20;99400.19;;;16.18;61.38
50364;BME280;36272;59.400;17.982;2023-09-19T16:55:22;99403.56;;;16.10;61.37
50364;BME280;36272;59.400;17.982;2023-09-19T17:00:23;99398.28;;;15.99;61.39
50364;BME280;36272;59.400;17.982;2023-09-19T17:05:32;99392.47;;;15.92;61.92
50364;BME280;36272;59.400;17.982;2023-09-19T17:10:34;99397.94;;;15.82;61.88
50364;BME280;36272;59.400;17.982;2023-09-19T17:15:38;99419.06;;;15.74;62.20
50364;BME280;36272;59.400;17.982;2023-09-19T17:20:41;99391.72;;;15.62;62.42
50364;BME280;36272;59.400;17.982;2023-09-19T17:25:43;99411.75;;;15.56;62.57
50364;BME280;36272;59.400;17.982;2023-09-19T17:30:45;99407.50;;;15.50;62.82
50364;BME280;36272;59.400;17.982;2023-09-19T17:35:48;99419.41;;;15.43;63.15
50364;BME280;36272;59.400;17.982;2023-09-19T17:40:50;99411.94;;;15.35;63.47
50364;BME280;36272;59.400;17.982;2023-09-19T17:45:52;99429.25;;;15.29;64.29
50364;BME280;36272;59.400;17.982;2023-09-19T17:51:03;99406.44;;;15.21;65.05
50364;BME280;36272;59.400;17.982;2023-09-19T17:56:05;99421.03;;;15.15;65.63
50364;BME280;36272;59.400;17.982;2023-09-19T18:01:14;99402.44;;;15.19;65.20
50364;BME280;36272;59.400;17.982;2023-09-19T18:06:16;99417.06;;;15.07;65.99
50364;BME280;36272;59.400;17.982;2023-09-19T18:11:20;99422.50;;;15.02;66.38
50364;BME280;36272;59.400;17.982;2023-09-19T18:16:26;99406.66;;;15.00;66.55
50364;BME280;36272;59.400;17.982;2023-09-19T18:21:34;99414.72;;;15.00;66.34
50364;BME280;36272;59.400;17.982;2023-09-19T18:26:36;99416.59;;;15.00;66.12
50364;BME280;36272;59.400;17.982;2023-09-19T18:31:40;99405.03;;;14.99;65.97
50364;BME280;36272;59.400;17.982;2023-09-19T18:36:42;99397.75;;;15.00;66.10
50364;BME280;36272;59.400;17.982;2023-09-19T18:41:46;99381.09;;;14.98;65.87
50364;BME280;36272;59.400;17.982;2023-09-19T18:46:48;99389.16;;;14.98;65.82
50364;BME280;36272;59.400;17.982;2023-09-19T18:51:51;99375.69;;;14.98;65.98
50364;BME280;36272;59.400;17.982;2023-09-19T18:56:54;99382.69;;;14.99;65.83
50364;BME280;36272;59.400;17.982;2023-09-19T19:01:55;99381.59;;;15.00;65.88
50364;BME280;36272;59.400;17.982;2023-09-19T19:06:59;99374.84;;;15.02;66.00
50364;BME280;36272;59.400;17.982;2023-09-19T19:12:02;99368.88;;;15.06;66.04
50364;BME280;36272;59.400;17.982;2023-09-19T19:17:04;99369.91;;;15.10;66.01
50364;BME280;36272;59.400;17.982;2023-09-19T19:22:06;99369.09;;;15.14;66.27
50364;BME280;36272;59.400;17.982;2023-09-19T19:27:09;99353.97;;;15.19;66.81
50364;BME280;36272;59.400;17.982;2023-09-19T19:32:10;99361.69;;;15.25;66.90
50364;BME280;36272;59.400;17.982;2023-09-19T19:37:14;99368.63;;;15.31;67.05
50364;BME280;36272;59.400;17.982;2023-09-19T19:42:17;99357.50;;;15.38;67.66
50364;BME280;36272;59.400;17.982;2023-09-19T19:47:19;99348.56;;;15.43;67.68
50364;BME280;36272;59.400;17.982;2023-09-19T19:52:22;99360.59;;;15.51;67.84
50364;BME280;36272;59.400;17.982;2023-09-19T19:57:25;99345.16;;;15.56;67.70
50364;BME280;36272;59.400;17.982;2023-09-19T20:02:27;99324.88;;;15.64;67.69
50364;BME280;36272;59.400;17.982;2023-09-19T20:07:29;99331.25;;;15.68;67.87
50364;BME280;36272;59.400;17.982;2023-09-19T20:12:31;99331.25;;;15.68;67.98
50364;BME280;36272;59.400;17.982;2023-09-19T20:17:33;99328.81;;;15.72;68.24
50364;BME280;36272;59.400;17.982;2023-09-19T20:22:35;99315.31;;;15.72;68.45
50364;BME280;36272;59.400;17.982;2023-09-19T20:27:41;99285.44;;;15.68;69.06
50364;BME280;36272;59.400;17.982;2023-09-19T20:32:43;99275.63;;;15.77;68.73
50364;BME280;36272;59.400;17.982;2023-09-19T20:37:48;99278.81;;;15.60;69.35
50364;BME280;36272;59.400;17.982;2023-09-19T20:42:51;99277.06;;;15.51;70.52
50364;BME280;36272;59.400;17.982;2023-09-19T20:47:55;99263.16;;;15.43;71.35
50364;BME280;36272;59.400;17.982;2023-09-19T20:52:56;99253.03;;;15.35;71.85
50364;BME280;36272;59.400;17.982;2023-09-19T20:57:58;99228.69;;;15.21;73.25
50364;BME280;36272;59.400;17.982;2023-09-19T21:03:01;99211.88;;;15.10;73.92
50364;BME280;36272;59.400;17.982;2023-09-19T21:08:02;99194.44;;;15.02;74.59
50364;BME280;36272;59.400;17.982;2023-09-19T21:13:05;99183.47;;;14.99;75.34
50364;BME280;36272;59.400;17.982;2023-09-19T21:18:08;99174.09;;;14.96;75.72
50364;BME280;36272;59.400;17.982;2023-09-19T21:23:09;99148.53;;;14.94;76.41
50364;BME280;36272;59.400;17.982;2023-09-19T21:28:14;99139.94;;;14.92;76.56
50364;BME280;36272;59.400;17.982;2023-09-19T21:33:16;99114.13;;;14.91;77.27
50364;BME280;36272;59.400;17.982;2023-09-19T21:38:19;99106.03;;;14.91;77.94
50364;BME280;36272;59.400;17.982;2023-09-19T21:43:20;99086.41;;;14.90;78.79
50364;BME280;36272;59.400;17.982;2023-09-19T21:48:22;99062.97;;;14.91;79.29
50364;BME280;36272;59.400;17.982;2023-09-19T21:53:26;99051.44;;;14.90;79.95
50364;BME280;36272;59.400;17.982;2023-09-19T21:58:29;99027.47;;;14.89;80.78
50364;BME280;36272;59.400;17.982;2023-09-19T22:03:37;98995.75;;;14.85;81.28
50364;BME280;36272;59.400;17.982;2023-09-19T22:08:40;98962.97;;;14.83;81.49
50364;BME280;36272;59.400;17.982;2023-09-19T22:13:42;98939.25;;;14.85;82.00
50364;BME280;36272;59.400;17.982;2023-09-19T22:18:45;98907.47;;;14.87;82.46
50364;BME280;36272;59.400;17.982;2023-09-19T22:23:47;98905.84;;;14.86;83.09
50364;BME280;36272;59.400;17.982;2023-09-19T22:28:51;98858.50;;;14.85;83.34
50364;BME280;36272;59.400;17.982;2023-09-19T22:33:54;98831.59;;;14.85;83.82
50364;BME280;36272;59.400;17.982;2023-09-19T22:38:56;98817.53;;;14.89;84.24
50364;BME280;36272;59.400;17.982;2023-09-19T22:44:01;98814.78;;;14.94;84.16
50364;BME280;36272;59.400;17.982;2023-09-19T22:49:03;98804.22;;;14.97;84.79
50364;BME280;36272;59.400;17.982;2023-09-19T22:54:17;98778.50;;;15.05;85.12
50364;BME280;36272;59.400;17.982;2023-09-19T22:59:25;98777.50;;;15.15;85.15
50364;BME280;36272;59.400;17.982;2023-09-19T23:04:27;98769.50;;;15.24;85.47
50364;BME280;36272;59.400;17.982;2023-09-19T23:09:29;98775.78;;;15.33;85.74
50364;BME280;36272;59.400;17.982;2023-09-19T23:14:33;98741.38;;;15.44;85.87
50364;BME280;36272;59.400;17.982;2023-09-19T23:19:36;98781.25;;;15.56;85.48
50364;BME280;36272;59.400;17.982;2023-09-19T23:24:38;98764.66;;;15.63;85.73
50364;BME280;36272;59.400;17.982;2023-09-19T23:29:42;98758.56;;;15.71;85.81
50364;BME280;36272;59.400;17.982;2023-09-19T23:34:44;98769.41;;;15.80;85.62
50364;BME280;36272;59.400;17.982;2023-09-19T23:39:48;98776.28;;;15.86;85.79
50364;BME280;36272;59.400;17.982;2023-09-19T23:44:52;98781.59;;;15.91;85.67
50364;BME280;36272;59.400;17.982;2023-09-19T23:49:59;98773.38;;;15.96;85.85
50364;BME280;36272;59.400;17.982;2023-09-19T23:55:06;98785.66;;;16.02;85.92
